createdAt,value
2022-11-26T00:00:43.026Z,9.43
2022-11-26T00:03:10.723Z,10.55
2022-11-26T00:05:38.283Z,11.40
2022-11-26T00:08:15.187Z,10.35
2022-11-26T00:10:42.479Z,10.38
2022-11-26T00:13:15.935Z,10.48
2022-11-26T00:15:43.241Z,11.73
2022-11-26T00:18:10.531Z,9.90
2022-11-26T00:20:37.851Z,11.02
2022-11-26T00:23:05.444Z,10.15
2022-11-26T00:25:38.496Z,10.55
2022-11-26T00:28:19.579Z,11.13
2022-11-26T00:30:46.928Z,10.55
2022-11-26T00:33:14.321Z,10.60
2022-11-26T00:35:41.796Z,11.32
2022-11-26T00:38:11.822Z,12.13
2022-11-26T00:40:41.627Z,12.77
2022-11-26T00:43:11.243Z,11.85
2022-11-26T00:45:38.772Z,12.23
2022-11-26T00:48:06.249Z,13.07
2022-11-26T00:50:34.798Z,12.38
2022-11-26T00:53:02.132Z,13.10
2022-11-26T00:55:30.771Z,13.10
2022-11-26T00:57:59.547Z,13.55
2022-11-26T01:00:28.298Z,13.55
2022-11-26T01:02:56.252Z,13.20
2022-11-26T01:05:24.526Z,13.50
2022-11-26T01:07:52.687Z,12.63
2022-11-26T01:10:21.195Z,11.82
2022-11-26T01:12:48.897Z,13.20
2022-11-26T01:15:18.007Z,13.15
2022-11-26T01:17:45.346Z,13.60
2022-11-26T01:20:24.104Z,15.57
2022-11-26T01:22:53.636Z,15.48
2022-11-26T01:25:21.099Z,14.32
2022-11-26T01:27:48.462Z,14.65
2022-11-26T01:30:19.955Z,15.60
2022-11-26T01:32:48.596Z,13.27
2022-11-26T01:35:16.248Z,14.75
2022-11-26T01:37:44.122Z,15.45
2022-11-26T01:40:24.879Z,14.30
2022-11-26T01:42:53.391Z,16.33
2022-11-26T01:45:22.946Z,12.75
2022-11-26T01:47:50.526Z,13.77
2022-11-26T01:50:48.516Z,14.63
2022-11-26T01:53:20.202Z,14.68
2022-11-26T01:55:48.907Z,15.32
2022-11-26T01:58:18.732Z,14.80
2022-11-26T02:00:47.963Z,12.45
2022-11-26T02:03:15.549Z,14.27
2022-11-26T02:05:45.965Z,13.52
2022-11-26T02:08:13.507Z,13.00
2022-11-26T02:10:40.829Z,14.63
2022-11-26T02:13:08.154Z,13.65
2022-11-26T02:15:42.010Z,14.57
2022-11-26T02:18:10.771Z,15.05
2022-11-26T02:20:51.877Z,13.27
2022-11-26T02:23:34.077Z,13.75
2022-11-26T02:26:22.288Z,12.00
2022-11-26T02:28:59.486Z,13.98
2022-11-26T02:31:30.761Z,12.65
2022-11-26T02:34:04.405Z,13.07
2022-11-26T02:36:34.353Z,12.77
2022-11-26T02:39:11.463Z,13.07
2022-11-26T02:41:41.984Z,12.05
2022-11-26T02:44:09.354Z,13.57
2022-11-26T02:46:38.503Z,12.25
2022-11-26T02:49:06.013Z,13.85
2022-11-26T02:51:35.068Z,13.02
2022-11-26T02:54:02.696Z,12.32
2022-11-26T02:56:30.068Z,12.48
2022-11-26T02:58:58.027Z,15.00
2022-11-26T03:01:29.154Z,12.95
2022-11-26T03:03:59.923Z,12.77
2022-11-26T03:06:28.755Z,13.30
2022-11-26T03:08:56.703Z,13.60
2022-11-26T03:11:24.106Z,13.80
2022-11-26T03:13:51.508Z,12.80
2022-11-26T03:16:18.844Z,14.65
2022-11-26T03:18:46.185Z,12.45
2022-11-26T03:21:14.840Z,12.13
2022-11-26T03:23:42.163Z,11.38
2022-11-26T03:26:11.780Z,12.75
2022-11-26T03:28:39.210Z,11.80
2022-11-26T03:31:06.676Z,12.15
2022-11-26T03:33:33.966Z,10.98
2022-11-26T03:36:01.288Z,10.73
2022-11-26T03:38:29.979Z,10.65
2022-11-26T03:40:57.810Z,8.50
2022-11-26T03:43:25.183Z,8.48
2022-11-26T03:45:52.534Z,9.60
2022-11-26T03:48:19.900Z,9.63
2022-11-26T03:50:47.230Z,8.52
2022-11-26T03:53:14.558Z,8.55
2022-11-26T03:55:43.191Z,8.43
2022-11-26T03:58:10.508Z,7.68
2022-11-26T04:00:37.845Z,8.32
2022-11-26T04:03:05.253Z,7.50
2022-11-26T04:05:32.883Z,8.25
2022-11-26T04:08:00.209Z,7.10
2022-11-26T04:10:27.494Z,8.20
2022-11-26T04:12:56.133Z,9.10
2022-11-26T04:15:23.473Z,8.00
2022-11-26T04:17:50.791Z,7.75
2022-11-26T04:20:18.245Z,8.32
2022-11-26T04:22:45.645Z,7.43
2022-11-26T04:25:12.926Z,7.70
2022-11-26T04:27:40.242Z,7.15
2022-11-26T04:30:10.056Z,8.20
2022-11-26T04:32:39.717Z,8.90
2022-11-26T04:35:07.654Z,6.10
2022-11-26T04:37:35.199Z,7.70
2022-11-26T04:40:03.157Z,7.20
2022-11-26T04:42:30.468Z,7.88
2022-11-26T04:44:57.795Z,7.43
2022-11-26T04:47:26.528Z,5.97
2022-11-26T04:49:53.948Z,7.28
2022-11-26T04:52:21.327Z,8.35
2022-11-26T04:54:48.634Z,8.18
2022-11-26T04:57:15.924Z,6.85
2022-11-26T04:59:43.223Z,8.30
2022-11-26T05:02:10.516Z,8.02
2022-11-26T05:04:39.275Z,8.23
2022-11-26T05:07:06.764Z,7.03
2022-11-26T05:09:34.135Z,7.97
2022-11-26T05:12:01.465Z,8.45
2022-11-26T05:14:28.767Z,8.00
2022-11-26T05:16:56.159Z,7.18
2022-11-26T05:19:23.475Z,8.07
2022-11-26T05:21:52.065Z,8.55
2022-11-26T05:24:19.390Z,8.18
2022-11-26T05:26:46.727Z,8.15
2022-11-26T05:29:14.029Z,7.93
2022-11-26T05:31:41.461Z,7.90
2022-11-26T05:34:08.801Z,7.55
2022-11-26T05:36:36.174Z,7.68
2022-11-26T05:39:05.241Z,7.28
2022-11-26T05:41:32.526Z,7.68
2022-11-26T05:43:59.798Z,7.22
2022-11-26T05:46:27.158Z,7.38
2022-11-26T05:48:54.447Z,7.00
2022-11-26T05:51:21.754Z,6.22
2022-11-26T05:53:49.123Z,7.18
2022-11-26T05:56:17.783Z,7.95
2022-11-26T05:58:45.202Z,7.25
2022-11-26T06:01:12.523Z,6.95
2022-11-26T06:03:40.008Z,7.38
2022-11-26T06:06:07.593Z,6.88
2022-11-26T06:08:34.892Z,6.07
2022-11-26T06:11:02.277Z,6.10
2022-11-26T06:13:30.924Z,6.68
2022-11-26T06:15:58.248Z,5.95
2022-11-26T06:18:25.573Z,6.68
2022-11-26T06:20:52.902Z,5.88
2022-11-26T06:23:20.239Z,6.43
2022-11-26T06:25:48.187Z,6.22
2022-11-26T06:28:15.494Z,7.30
2022-11-26T06:30:46.209Z,7.50
2022-11-26T06:33:13.650Z,6.15
2022-11-26T06:35:40.955Z,6.85
2022-11-26T06:38:08.253Z,6.65
2022-11-26T06:40:35.760Z,6.28
2022-11-26T06:43:03.119Z,7.82
2022-11-26T06:45:30.560Z,7.10
2022-11-26T06:47:59.247Z,7.20
2022-11-26T06:50:26.573Z,6.55
2022-11-26T06:52:54.142Z,6.45
2022-11-26T06:55:21.507Z,5.88
2022-11-26T06:57:50.062Z,7.15
2022-11-26T07:00:17.626Z,6.90
2022-11-26T07:02:45.012Z,6.68
2022-11-26T07:05:13.714Z,7.20
2022-11-26T07:07:41.310Z,7.22
2022-11-26T07:10:09.088Z,7.90
2022-11-26T07:12:36.427Z,6.57
2022-11-26T07:15:03.734Z,9.77
2022-11-26T07:17:31.043Z,8.00
2022-11-26T07:19:58.342Z,7.38
2022-11-26T07:22:27.074Z,8.10
2022-11-26T07:24:54.355Z,9.40
2022-11-26T07:27:21.693Z,8.60
2022-11-26T07:29:48.978Z,9.20
2022-11-26T07:32:16.277Z,8.43
2022-11-26T07:34:43.563Z,9.07
2022-11-26T07:37:10.875Z,9.88
2022-11-26T07:39:39.505Z,8.82
2022-11-26T07:42:06.822Z,8.98
2022-11-26T07:44:34.138Z,11.02
2022-11-26T07:47:02.213Z,10.75
2022-11-26T07:49:29.578Z,9.65
2022-11-26T07:51:56.974Z,10.15
2022-11-26T07:54:24.312Z,11.80
2022-11-26T07:56:52.957Z,10.40
2022-11-26T07:59:20.324Z,10.82
2022-11-26T08:01:48.125Z,10.65
2022-11-26T08:04:15.496Z,11.25
2022-11-26T08:06:42.809Z,11.38
2022-11-26T08:09:11.395Z,11.55
2022-11-26T08:11:38.704Z,10.23
2022-11-26T08:14:08.373Z,10.25
2022-11-26T08:16:35.760Z,9.43
2022-11-26T08:19:04.308Z,10.60
2022-11-26T08:21:31.691Z,10.25
2022-11-26T08:23:59.225Z,9.55
2022-11-26T08:26:34.596Z,10.10
2022-11-26T08:29:04.992Z,8.55
2022-11-26T08:31:34.648Z,9.15
2022-11-26T08:34:02.851Z,9.50
2022-11-26T08:36:30.876Z,9.60
2022-11-26T08:38:59.045Z,9.23
2022-11-26T08:41:26.350Z,9.90
2022-11-26T08:44:09.213Z,9.13
2022-11-26T08:46:38.798Z,8.57
2022-11-26T08:49:07.144Z,7.70
2022-11-26T08:51:34.676Z,8.23
2022-11-26T08:54:02.134Z,8.65
2022-11-26T08:56:29.499Z,8.52
2022-11-26T08:58:56.970Z,8.10
2022-11-26T09:01:26.186Z,8.85
2022-11-26T09:03:55.869Z,7.85
2022-11-26T09:06:24.018Z,8.10
2022-11-26T09:09:08.964Z,7.72
2022-11-26T09:11:37.233Z,6.75
2022-11-26T09:14:04.885Z,5.93
2022-11-26T09:16:32.374Z,5.82
2022-11-26T09:19:01.628Z,4.32
2022-11-26T09:21:29.504Z,5.05
2022-11-26T09:23:56.870Z,4.00
2022-11-26T09:26:25.123Z,5.22
2022-11-26T09:28:52.688Z,4.60
2022-11-26T09:31:20.704Z,4.97
2022-11-26T09:33:48.092Z,4.18
2022-11-26T09:36:17.478Z,4.20
2022-11-26T09:38:44.990Z,4.88
2022-11-26T09:41:17.896Z,4.95
2022-11-26T09:43:53.630Z,4.45
2022-11-26T09:46:22.174Z,4.35
2022-11-26T09:48:49.716Z,4.20
2022-11-26T09:51:20.384Z,3.65
2022-11-26T09:53:49.918Z,4.15
2022-11-26T09:56:20.845Z,3.22
2022-11-26T09:58:52.866Z,3.88
2022-11-26T10:01:21.783Z,3.50
2022-11-26T10:03:49.598Z,3.88
2022-11-26T10:06:24.855Z,3.78
2022-11-26T10:09:11.886Z,4.13
2022-11-26T10:11:42.577Z,4.07
2022-11-26T10:14:15.119Z,4.13
2022-11-26T10:16:44.829Z,3.63
2022-11-26T10:19:18.243Z,3.80
2022-11-26T10:22:03.559Z,4.25
2022-11-26T10:24:32.801Z,3.38
2022-11-26T10:27:02.622Z,3.17
2022-11-26T10:29:34.547Z,4.40
2022-11-26T10:32:03.066Z,3.75
2022-11-26T10:34:39.525Z,3.92
2022-11-26T10:37:08.744Z,3.58
2022-11-26T10:39:36.035Z,4.00
2022-11-26T10:42:04.911Z,3.75
2022-11-26T10:44:34.379Z,4.22
2022-11-26T10:47:19.297Z,3.42
2022-11-26T10:49:46.671Z,3.10
2022-11-26T10:52:16.943Z,4.45
2022-11-26T10:54:45.409Z,4.00
2022-11-26T10:57:15.061Z,3.17
2022-11-26T10:59:46.844Z,3.47
2022-11-26T11:02:31.682Z,4.40
2022-11-26T11:05:00.136Z,3.72
2022-11-26T11:07:36.673Z,4.25
2022-11-26T11:10:05.712Z,3.50
2022-11-26T11:12:33.048Z,3.40
2022-11-26T11:15:14.049Z,3.90
2022-11-26T11:17:41.471Z,3.53
2022-11-26T11:20:23.353Z,3.95
2022-11-26T11:22:57.819Z,3.50
2022-11-26T11:25:26.581Z,4.43
2022-11-26T11:27:54.619Z,3.13
2022-11-26T11:30:25.734Z,3.67
2022-11-26T11:32:56.010Z,3.80
2022-11-26T11:35:24.289Z,3.67
2022-11-26T11:37:53.925Z,3.53
2022-11-26T11:40:25.302Z,3.42
2022-11-26T11:42:54.093Z,3.50
2022-11-26T11:45:23.563Z,3.78
2022-11-26T11:47:52.820Z,3.40
2022-11-26T11:50:21.987Z,3.25
2022-11-26T11:53:01.982Z,3.53
2022-11-26T11:55:35.211Z,3.47
2022-11-26T11:58:16.280Z,3.30
2022-11-26T12:00:48.456Z,3.33
2022-11-26T12:03:26.540Z,2.80
2022-11-26T12:06:00.285Z,3.90
2022-11-26T12:08:32.823Z,3.30
2022-11-26T12:11:06.090Z,3.58
2022-11-26T12:13:44.139Z,3.00
2022-11-26T12:16:12.789Z,3.28
2022-11-26T12:18:42.767Z,7.25
2022-11-26T12:21:12.109Z,7.68
2022-11-26T12:23:45.896Z,11.85
2022-11-26T12:26:14.783Z,3.58
2022-11-26T12:28:51.132Z,6.85
2022-11-26T12:31:20.760Z,3.22
2022-11-26T12:33:51.009Z,3.42
2022-11-26T12:36:21.382Z,3.58
2022-11-26T12:38:52.432Z,3.10
2022-11-26T12:41:20.854Z,3.25
2022-11-26T12:43:49.897Z,3.25
2022-11-26T12:46:19.491Z,3.20
2022-11-26T12:48:50.731Z,3.10
2022-11-26T12:51:23.895Z,3.20
2022-11-26T12:53:58.332Z,2.70
2022-11-26T12:56:30.802Z,3.17
2022-11-26T12:59:02.798Z,4.28
2022-11-26T13:01:31.648Z,3.40
2022-11-26T13:04:22.028Z,3.28
2022-11-26T13:06:53.809Z,3.88
2022-11-26T13:09:30.588Z,3.28
2022-11-26T13:11:59.312Z,3.90
2022-11-26T13:14:32.361Z,3.33
2022-11-26T13:17:03.320Z,4.10
2022-11-26T13:19:33.626Z,4.32
2022-11-26T13:22:07.743Z,3.63
2022-11-26T13:24:44.576Z,4.20
2022-11-26T13:27:19.398Z,3.83
2022-11-26T13:32:25.982Z,4.25
2022-11-26T13:35:00.234Z,5.03
2022-11-26T13:37:35.161Z,4.95
2022-11-26T13:42:53.706Z,4.13
2022-11-26T13:45:36.095Z,4.35
2022-11-26T13:48:07.120Z,4.30
2022-11-26T13:50:37.807Z,4.32
2022-11-26T13:53:07.494Z,5.35
2022-11-26T13:55:37.215Z,5.00
2022-11-26T13:58:06.890Z,4.53
2022-11-26T14:00:35.016Z,4.90
2022-11-26T14:03:03.446Z,4.70
2022-11-26T14:05:45.714Z,5.10
2022-11-26T14:08:27.931Z,5.57
2022-11-26T14:10:56.555Z,5.25
2022-11-26T14:13:23.866Z,6.45
2022-11-26T14:15:52.378Z,6.80
2022-11-26T14:18:39.860Z,6.90
2022-11-26T14:21:14.712Z,5.85
2022-11-26T14:26:10.179Z,6.60
2022-11-26T14:28:37.534Z,8.57
2022-11-26T14:31:08.467Z,7.80
2022-11-26T14:33:35.880Z,6.63
2022-11-26T14:36:03.196Z,6.18
2022-11-26T14:38:35.133Z,7.78
2022-11-26T14:41:02.452Z,7.75
2022-11-26T14:43:30.296Z,5.95
2022-11-26T14:46:02.889Z,6.47
2022-11-26T14:48:30.765Z,6.55
2022-11-26T14:51:00.012Z,5.68
2022-11-26T14:53:29.166Z,7.18
2022-11-26T14:55:57.922Z,5.97
2022-11-26T14:58:29.363Z,6.07
2022-11-26T15:01:17.823Z,6.78
2022-11-26T15:03:54.178Z,5.60
2022-11-26T15:06:24.783Z,5.60
2022-11-26T15:08:52.105Z,5.53
2022-11-26T15:11:21.579Z,5.53
2022-11-26T15:13:48.991Z,6.15
2022-11-26T15:16:27.771Z,6.25
2022-11-26T15:18:55.687Z,5.95
2022-11-26T15:21:24.290Z,6.22
2022-11-26T15:23:52.359Z,6.65
2022-11-26T15:26:23.023Z,6.70
2022-11-26T15:28:50.535Z,6.00
2022-11-26T15:31:17.975Z,5.82
2022-11-26T15:33:45.560Z,5.90
2022-11-26T15:36:17.398Z,5.85
2022-11-26T15:38:59.875Z,6.40
2022-11-26T15:41:28.778Z,6.07
2022-11-26T15:43:58.603Z,7.15
2022-11-26T15:46:26.511Z,6.80
2022-11-26T15:48:54.825Z,7.88
2022-11-26T15:51:23.930Z,6.15
2022-11-26T15:53:51.615Z,6.47
2022-11-26T15:56:19.750Z,6.43
2022-11-26T15:58:50.292Z,5.63
2022-11-26T16:01:19.666Z,6.43
2022-11-26T16:03:48.120Z,7.10
2022-11-26T16:06:29.710Z,6.65
2022-11-26T16:08:59.394Z,6.13
2022-11-26T16:11:27.139Z,6.22
2022-11-26T16:13:55.848Z,6.32
2022-11-26T16:16:24.391Z,6.60
2022-11-26T16:18:54.000Z,7.70
2022-11-26T16:21:24.136Z,8.13
2022-11-26T16:23:54.917Z,7.50
2022-11-26T16:26:22.182Z,7.20
2022-11-26T16:28:49.512Z,6.82
2022-11-26T16:31:18.661Z,7.28
2022-11-26T16:33:46.040Z,8.00
2022-11-26T16:36:18.124Z,7.65
2022-11-26T16:38:45.669Z,7.68
2022-11-26T16:41:13.682Z,7.65
2022-11-26T16:43:41.014Z,7.43
2022-11-26T16:46:10.933Z,8.52
2022-11-26T16:48:40.175Z,11.63
2022-11-26T16:51:07.493Z,17.98
2022-11-26T16:53:34.814Z,15.63
2022-11-26T16:56:02.232Z,8.50
2022-11-26T16:58:30.526Z,12.68
2022-11-26T17:00:58.189Z,9.90
2022-11-26T17:03:27.309Z,9.85
2022-11-26T17:05:57.216Z,11.48
2022-11-26T17:08:24.772Z,14.85
2022-11-26T17:10:52.280Z,28.48
2022-11-26T17:13:20.439Z,32.15
2022-11-26T17:15:48.228Z,11.93
2022-11-26T17:18:19.059Z,9.68
2022-11-26T17:20:46.739Z,8.80
2022-11-26T17:23:15.647Z,8.40
2022-11-26T17:25:44.088Z,8.73
2022-11-26T17:28:11.842Z,9.88
2022-11-26T17:30:39.531Z,10.18
2022-11-26T17:33:07.323Z,9.75
2022-11-26T17:35:34.612Z,9.77
2022-11-26T17:38:02.170Z,10.15
2022-11-26T17:40:30.860Z,10.55
2022-11-26T17:42:58.170Z,9.90
2022-11-26T17:45:25.431Z,10.32
2022-11-26T17:47:52.751Z,9.75
2022-11-26T17:50:20.938Z,9.60
2022-11-26T17:52:48.648Z,10.02
2022-11-26T17:55:16.055Z,11.32
2022-11-26T17:57:44.994Z,9.55
2022-11-26T18:00:13.594Z,8.85
2022-11-26T18:02:41.063Z,10.32
2022-11-26T18:05:08.824Z,10.43
2022-11-26T18:07:37.003Z,11.25
2022-11-26T18:10:04.652Z,9.95
2022-11-26T18:12:31.983Z,10.35
2022-11-26T18:15:01.940Z,9.57
2022-11-26T18:17:29.462Z,9.75
2022-11-26T18:19:57.481Z,9.93
2022-11-26T18:22:26.112Z,9.02
2022-11-26T18:24:56.812Z,9.65
2022-11-26T18:27:25.622Z,10.48
2022-11-26T18:29:52.944Z,10.13
2022-11-26T18:32:21.652Z,10.25
2022-11-26T18:34:49.756Z,12.60
2022-11-26T18:37:17.137Z,20.02
2022-11-26T18:39:44.445Z,14.77
2022-11-26T18:44:59.327Z,11.60
2022-11-26T18:47:28.024Z,10.45
2022-11-26T18:49:55.379Z,11.05
2022-11-26T18:52:22.723Z,27.55
2022-11-26T18:54:50.067Z,11.13
2022-11-26T18:57:17.408Z,10.98
2022-11-26T18:59:44.749Z,10.77
2022-11-26T19:02:12.370Z,15.85
2022-11-26T19:04:41.452Z,14.13
2022-11-26T19:07:09.557Z,15.63
2022-11-26T19:09:38.129Z,13.45
2022-11-26T19:12:05.880Z,12.55
2022-11-26T19:14:33.147Z,12.88
2022-11-26T19:17:01.506Z,13.73
2022-11-26T19:19:28.856Z,14.10
2022-11-26T19:22:01.028Z,13.38
2022-11-26T19:24:29.448Z,13.25
2022-11-26T19:26:56.842Z,11.80
2022-11-26T19:29:24.223Z,12.05
2022-11-26T19:31:51.644Z,12.60
2022-11-26T19:34:18.968Z,13.35
2022-11-26T19:36:48.364Z,12.98
2022-11-26T19:39:18.139Z,12.10
2022-11-26T19:41:45.465Z,12.88
2022-11-26T19:44:12.820Z,13.90
2022-11-26T19:46:40.591Z,14.57
2022-11-26T19:49:08.552Z,20.75
2022-11-26T19:51:35.888Z,13.65
2022-11-26T19:54:03.377Z,16.65
2022-11-26T19:56:32.479Z,22.85
2022-11-26T19:59:01.797Z,21.88
2022-11-26T20:01:30.461Z,15.75
2022-11-26T20:03:59.221Z,19.33
2022-11-26T20:06:27.707Z,15.48
2022-11-26T20:08:55.742Z,13.90
2022-11-26T20:11:23.265Z,13.20
2022-11-26T20:13:51.945Z,11.98
2022-11-26T20:16:20.227Z,24.13
2022-11-26T20:18:47.789Z,16.35
2022-11-26T20:21:16.140Z,19.88
2022-11-26T20:23:43.544Z,20.98
2022-11-26T20:26:15.080Z,13.05
2022-11-26T20:28:42.451Z,13.50
2022-11-26T20:31:11.254Z,15.52
2022-11-26T20:33:38.641Z,14.48
2022-11-26T20:36:06.763Z,15.40
2022-11-26T20:38:34.085Z,15.55
2022-11-26T20:41:01.426Z,15.05
2022-11-26T20:43:28.799Z,16.60
2022-11-26T20:46:02.758Z,14.93
2022-11-26T20:48:31.799Z,15.20
2022-11-26T20:51:01.503Z,14.38
2022-11-26T20:53:28.876Z,14.35
2022-11-26T20:55:56.905Z,14.20
2022-11-26T20:58:24.240Z,12.82
2022-11-26T21:00:53.790Z,13.77
2022-11-26T21:03:21.428Z,14.65
2022-11-26T21:05:50.293Z,14.23
2022-11-26T21:08:17.759Z,13.05
2022-11-26T21:10:45.092Z,15.23
2022-11-26T21:13:15.803Z,13.35
2022-11-26T21:15:43.697Z,12.93
2022-11-26T21:18:11.643Z,16.88
2022-11-26T21:20:39.493Z,13.90
2022-11-26T21:23:08.234Z,15.50
2022-11-26T21:25:37.295Z,14.02
2022-11-26T21:28:04.818Z,14.23
2022-11-26T21:30:32.217Z,15.40
2022-11-26T21:33:02.196Z,13.55
2022-11-26T21:35:32.601Z,12.32
2022-11-26T21:38:00.445Z,12.63
2022-11-26T21:40:29.103Z,12.95
2022-11-26T21:42:56.531Z,13.68
2022-11-26T21:45:23.833Z,12.43
2022-11-26T21:47:51.725Z,11.93
2022-11-26T21:50:19.080Z,12.75
2022-11-26T21:52:46.608Z,11.98
2022-11-26T21:55:13.897Z,13.90
2022-11-26T21:57:42.584Z,12.98
2022-11-26T22:00:10.409Z,12.57
2022-11-26T22:02:37.886Z,13.10
2022-11-26T22:05:05.625Z,11.98
2022-11-26T22:07:33.093Z,13.38
2022-11-26T22:10:00.516Z,12.57
2022-11-26T22:12:27.803Z,13.75
2022-11-26T22:14:56.415Z,12.93
2022-11-26T22:17:23.775Z,13.02
2022-11-26T22:19:51.087Z,12.23
2022-11-26T22:22:18.408Z,12.63
2022-11-26T22:24:45.740Z,12.18
2022-11-26T22:27:13.071Z,11.20
2022-11-26T22:29:40.474Z,10.98
2022-11-26T22:32:09.334Z,11.05
2022-11-26T22:34:36.648Z,10.40
2022-11-26T22:37:03.932Z,9.05
2022-11-26T22:39:31.699Z,9.18
2022-11-26T22:41:59.580Z,9.93
2022-11-26T22:44:26.867Z,10.98
2022-11-26T22:46:54.211Z,10.43
2022-11-26T22:49:22.855Z,9.27
2022-11-26T22:51:50.158Z,9.05
2022-11-26T22:54:18.919Z,7.10
2022-11-26T22:56:46.296Z,9.32
2022-11-26T22:59:14.023Z,10.07
2022-11-26T23:01:41.631Z,8.85
2022-11-26T23:04:09.601Z,9.73
2022-11-26T23:06:39.329Z,9.27
2022-11-26T23:09:07.558Z,9.75
2022-11-26T23:11:36.105Z,8.75
2022-11-26T23:14:05.117Z,8.40
2022-11-26T23:16:32.492Z,9.10
2022-11-26T23:18:59.895Z,7.97
2022-11-26T23:21:28.035Z,10.48
2022-11-26T23:23:57.078Z,8.23
2022-11-26T23:26:27.151Z,8.65
2022-11-26T23:28:55.299Z,8.40
2022-11-26T23:31:23.794Z,7.85
2022-11-26T23:33:51.138Z,7.65
2022-11-26T23:36:19.056Z,9.40
2022-11-26T23:38:46.401Z,8.95
2022-11-26T23:41:15.046Z,8.77
2022-11-26T23:43:42.848Z,7.90
2022-11-26T23:46:11.737Z,7.45
2022-11-26T23:48:39.175Z,7.03
2022-11-26T23:51:07.377Z,7.10
2022-11-26T23:53:35.517Z,6.35
2022-11-26T23:56:03.458Z,7.70
2022-11-26T23:58:32.233Z,6.90
